Share

Perry, FL (32348)

Perry (K40J) Elev 43 ft | 30.07 °N, 83.57 °W | Change Station
Active Advisory: Flood Warning Active Notice: Record Report

Current weather conditions updated 15 minutes ago

Overcast
Overcast
55 °F
Feels Like 55 °F
N
6
Wind Variable Wind from NW
Sunrise 7:03 AM
Sunset 8:04 PM
Moon Waning Gibbous

Today is forecast to be Cooler than yesterday. Showers ending by midday.

Pressure 29.94 in
Visibility 3.0 miles
Clouds Mostly Cloudy 500 ft
Overcast 900 ft
Dew Point 55 °F
Humidity 100%
Rainfall 0.07 in
Snow Depth Not available.
UV 0 out of 16
Pollen 8.40 out of 12
Air Quality Not available.
Flu Activity Sporadic
METAR K40J 191235Z AUTO 31005KT 3SM BR BKN005 OVC009 13/13 A2994 RMK AO2

More Conditions Fewer Conditions

Pressure 29.94 in
Visibility 3.0 miles
Clouds Mostly Cloudy 500 ft
Overcast 900 ft
Dew Point 55 °F
Humidity 100%
Rainfall 0.07 in
Snow Depth Not available.
UV 0 out of 16
Pollen 8.40 out of 12
Air Quality Not available.
Flu Activity Sporadic
METAR K40J 191235Z AUTO 31005KT 3SM BR BKN005 OVC009 13/13 A2994 RMK AO2

More Conditions Fewer Conditions

10-Day Weather Forecast

Almanac

Astronomy

Apr. 19, 2014 Rise Set
Actual Time 7:03 AM EDT 8:04 PM EDT
Civil Twilight 6:38 AM EDT 8:28 PM EDT
Nautical Twilight 6:09 AM EDT 8:58 PM EDT
Astronomical Twilight 5:38 AM EDT 9:28 PM EDT
Moon No Moon Rise 10:30 AM EDT
Length of Visible Light 13h 50m
Length of Day
13h 01m
Tomorrow will be 1m 41s longer.
Waning Gibbous, 80% of the Moon is Illuminated
Today
Waning Gibbous
Apr 22
Last Quarter
Apr 29
New
May 6
First Quarter
May 14
Full

Today's Extremes

State Highs State Lows

Community

  • Bleeding Hearts
    Bleeding Hearts
  • Sunset Silhouettes
    Sunset Silhouettes
  • FL sunset Perico Isle
    FL sunset Perico Isle
  • Cloudy spring view
    Cloudy spring view
  • Old barn
    Old barn

WunderPhotos

Upload Photos

1,702,705 photos uploaded!

Nearby

Snow Depth

Station Depth Elevation
No new snow has been reported.

Coastal Water Temperatures

Place Temperature
Apalachicola, FL 64.0 °F
Panama City, FL 66.0 °F

Earthquake Activity

City Distance Mag. Time & Date
No recent earthquake activity has been reported nearby.
Minimum magnitude displayed is 2.5.

Nearby Weather Stations

Station Location Temp. Dew Point Humidity Wind Precip. Elev Updated Type
MARITIME , Salem, FL 57 °F 56 °F 97% NW  at  6 mph 0.00 in / hr 6 ft 8:00 AM EDT MADIS
Madison, Madison, FL 56.7 °F 55 °F 95% NNE  at  1.7 mph - / hr 89 ft 8:46 AM EDT Normal

Show More Stations Show Fewer Stations

What do you think?

We're not finished. Please let us know what you like, what you don't like, and what you are still missing.